Time;durP1;ratioP1;P1;durP2;ratioP2;P2;SDS_P1;SDS_P2;PMS_P1;PMS_P2;Temp;Humidity;BMP_temperature;BMP_pressure;BME280_temperature;BME280_humidity;BME280_pressure;Samples;Min_cycle;Max_cycle;Signal;HPM_P1;HPM_P2
2022/09/09 00:00:06;;;;;;;3.63;0.60;;;;;;;19.18;61.01;99587.00;5053082;28;20060;-86
2022/09/09 00:02:34;;;;;;;1.90;0.70;;;;;;;19.23;61.06;99591.44;5052884;28;20068;-86
2022/09/09 00:05:15;;;;;;;3.03;0.68;;;;;;;19.19;61.06;99576.50;5054590;28;20057;-86
2022/09/09 00:07:48;;;;;;;1.58;0.88;;;;;;;19.24;60.90;99578.97;5056707;28;20060;-85
2022/09/09 00:10:23;;;;;;;3.25;0.90;;;;;;;19.24;61.07;99573.31;5055847;28;20053;-86
2022/09/09 00:13:01;;;;;;;3.60;0.80;;;;;;;19.24;61.36;99573.31;5056230;28;20486;-85
2022/09/09 00:15:36;;;;;;;2.42;0.68;;;;;;;19.27;61.26;99564.06;5062548;28;20052;-86
2022/09/09 00:18:14;;;;;;;1.10;0.60;;;;;;;19.17;61.36;99557.16;5056664;28;20059;-86
2022/09/09 00:20:53;;;;;;;3.38;0.90;;;;;;;19.15;61.61;99567.22;5056516;28;20056;-86
2022/09/09 00:23:26;;;;;;;2.33;0.80;;;;;;;19.00;62.05;99558.69;5056483;28;20060;-85
2022/09/09 00:26:03;;;;;;;2.25;0.77;;;;;;;19.10;62.03;99564.78;5038101;28;20053;-86
2022/09/09 00:28:34;;;;;;;1.88;0.60;;;;;;;19.12;62.05;99565.19;5036830;28;20053;-85
2022/09/09 00:31:10;;;;;;;2.72;0.80;;;;;;;19.13;62.08;99559.16;5037261;28;20061;-86
2022/09/09 00:33:40;;;;;;;2.67;0.90;;;;;;;19.11;62.64;99564.38;5037547;28;20049;-86
2022/09/09 00:36:15;;;;;;;2.85;1.00;;;;;;;18.95;63.44;99575.97;5035957;28;20509;-85
2022/09/09 00:38:49;;;;;;;3.08;1.27;;;;;;;18.93;63.96;99558.63;5036939;28;20053;-85
2022/09/09 00:41:22;;;;;;;3.63;1.08;;;;;;;18.86;64.72;99565.03;5055543;28;20497;-85
2022/09/09 00:43:58;;;;;;;2.17;0.95;;;;;;;18.78;65.26;99554.06;5055772;28;20057;-85
2022/09/09 00:46:50;;;;;;;2.38;1.00;;;;;;;18.87;65.17;99546.09;5055508;28;20049;-85
2022/09/09 00:49:29;;;;;;;2.33;0.98;;;;;;;18.84;65.42;99561.00;5055341;28;20421;-85
2022/09/09 00:52:16;;;;;;;3.70;1.17;;;;;;;18.77;65.79;99538.31;5055690;28;20060;-85
2022/09/09 00:54:52;;;;;;;4.13;1.30;;;;;;;18.66;66.17;99546.72;5040422;28;20049;-86
2022/09/09 00:57:29;;;;;;;5.43;1.40;;;;;;;18.53;66.77;99549.06;5036056;28;20058;-86
2022/09/09 01:00:21;;;;;;;2.10;1.33;;;;;;;18.36;67.52;99546.91;5035628;28;20045;-85
2022/09/09 01:03:10;;;;;;;2.28;1.15;;;;;;;18.29;68.10;99553.28;5034988;28;20049;-85
2022/09/09 01:05:45;;;;;;;4.03;1.20;;;;;;;18.16;68.26;99544.28;5035298;28;20061;-86
2022/09/09 01:08:30;;;;;;;3.47;1.40;;;;;;;18.02;69.12;99538.56;5040468;28;20417;-86
2022/09/09 01:10:59;;;;;;;3.28;1.20;;;;;;;17.90;69.27;99548.09;5054380;28;20061;-85
2022/09/09 01:13:30;;;;;;;;;;;;;;;17.87;69.20;99543.25;5055796;28;20413;-86
2022/09/09 01:15:59;;;;;;;3.60;1.30;;;;;;;17.82;69.18;99550.00;5053950;28;19925;-85
2022/09/09 01:18:30;;;;;;;4.90;1.70;;;;;;;17.76;69.38;99545.88;5054937;28;20560;-85
2022/09/09 01:21:07;;;;;;;4.90;1.25;;;;;;;17.71;69.47;99537.00;5055220;28;20057;-85
2022/09/09 01:23:50;;;;;;;4.15;1.40;;;;;;;17.80;68.96;99543.91;5053725;28;20071;-85
2022/09/09 01:26:25;;;;;;;3.95;1.35;;;;;;;17.84;68.58;99556.06;5054836;28;20060;-86
2022/09/09 01:28:53;;;;;;;3.03;1.05;;;;;;;17.82;68.75;99557.63;5054707;28;20386;-84
2022/09/09 01:31:27;;;;;;;3.90;1.40;;;;;;;17.82;68.71;99554.81;5054222;28;20052;-86
2022/09/09 01:33:54;;;;;;;7.50;1.48;;;;;;;17.76;68.71;99550.72;5054998;28;20060;-86
2022/09/09 01:36:30;;;;;;;2.72;1.25;;;;;;;17.76;69.00;99551.53;5054826;28;20064;-85
2022/09/09 01:38:58;;;;;;;3.08;1.10;;;;;;;17.77;69.04;99546.72;5053523;28;20056;-86
2022/09/09 01:41:27;;;;;;;2.83;1.27;;;;;;;17.72;69.17;99547.84;5034617;28;20067;-86
2022/09/09 01:43:56;;;;;;;2.45;0.88;;;;;;;17.68;69.50;99541.41;5035145;28;20477;-85
2022/09/09 01:46:24;;;;;;;4.07;1.38;;;;;;;17.80;68.97;99537.47;5034962;28;20053;-86
2022/09/09 01:48:53;;;;;;;3.33;1.33;;;;;;;17.67;69.25;99544.59;5035439;28;20053;-84
2022/09/09 01:51:20;;;;;;;2.47;0.90;;;;;;;17.83;68.83;99537.56;5034824;28;20072;-85
2022/09/09 01:53:48;;;;;;;4.03;1.20;;;;;;;17.72;69.06;99547.84;5037414;28;20504;-87
2022/09/09 01:56:41;;;;;;;2.75;1.10;;;;;;;17.80;69.01;99543.13;5048029;28;20053;-86
2022/09/09 01:59:40;;;;;;;3.17;1.30;;;;;;;17.74;69.08;99536.22;5054673;28;20053;-87
2022/09/09 02:02:12;;;;;;;3.47;0.80;;;;;;;17.87;68.59;99539.59;5055011;28;20053;-85
2022/09/09 02:04:42;;;;;;;3.55;1.00;;;;;;;17.74;69.18;99539.03;5054222;28;20060;-86
2022/09/09 02:07:26;;;;;;;3.78;1.20;;;;;;;17.94;68.42;99525.59;5054172;28;20045;-86
2022/09/09 02:10:01;;;;;;;3.10;1.33;;;;;;;17.89;68.43;99540.84;5038856;28;20045;-85
2022/09/09 02:12:31;;;;;;;3.22;1.23;;;;;;;17.88;68.57;99544.03;5053988;28;20056;-86
2022/09/09 02:15:04;;;;;;;2.80;1.10;;;;;;;17.99;68.41;99540.13;5054073;28;20057;-85
2022/09/09 02:17:37;;;;;;;2.10;1.00;;;;;;;17.89;68.43;99548.47;5046192;28;20045;-85
2022/09/09 02:20:08;;;;;;;2.53;1.00;;;;;;;18.05;68.08;99538.56;5034558;28;20049;-85
2022/09/09 02:22:39;;;;;;;5.28;1.42;;;;;;;18.15;67.66;99536.25;5034369;28;20398;-85
2022/09/09 02:25:09;;;;;;;4.00;1.27;;;;;;;18.06;67.97;99536.56;5033384;28;20061;-84
2022/09/09 02:27:38;;;;;;;3.38;1.05;;;;;;;18.09;67.68;99547.06;5034102;28;20060;-85
2022/09/09 02:30:07;;;;;;;4.80;1.10;;;;;;;18.12;67.56;99546.31;5033892;28;20060;-84
2022/09/09 02:32:37;;;;;;;2.70;1.10;;;;;;;18.04;67.81;99541.78;5046591;28;20060;-85
2022/09/09 02:35:07;;;;;;;;;;;;;;;17.90;68.21;99544.47;5053924;28;20045;-84
2022/09/09 02:37:38;;;;;;;2.90;0.80;;;;;;;17.86;68.40;99547.25;5054296;28;20379;-84
2022/09/09 02:40:08;;;;;;;3.13;1.00;;;;;;;17.86;68.47;99538.78;5053546;28;20508;-85
2022/09/09 02:42:41;;;;;;;2.67;1.00;;;;;;;17.75;68.74;99538.66;5053685;28;20056;-85
2022/09/09 02:45:11;;;;;;;2.88;1.00;;;;;;;17.77;68.84;99546.72;5053662;28;20060;-84
2022/09/09 02:47:44;;;;;;;3.45;1.10;;;;;;;17.79;68.57;99542.31;5053173;28;20536;-85
2022/09/09 02:50:18;;;;;;;2.53;1.10;;;;;;;17.74;68.52;99533.38;5053518;28;20045;-85
2022/09/09 02:53:07;;;;;;;3.03;1.00;;;;;;;17.72;68.71;99536.59;5053854;28;20064;-85
2022/09/09 02:55:43;;;;;;;4.70;1.52;;;;;;;17.66;69.02;99532.53;5053613;28;20067;-85
2022/09/09 02:58:16;;;;;;;2.85;1.20;;;;;;;17.63;69.00;99538.91;5053098;28;20049;-85
2022/09/09 03:00:46;;;;;;;1.95;0.90;;;;;;;17.56;69.61;99539.66;5052707;28;20517;-85
2022/09/09 03:03:15;;;;;;;3.33;0.90;;;;;;;17.54;69.25;99541.22;5052927;28;20060;-85
2022/09/09 03:05:42;;;;;;;3.45;1.10;;;;;;;17.59;69.00;99538.06;5053331;28;20525;-85
2022/09/09 03:08:12;;;;;;;3.67;1.05;;;;;;;17.45;69.61;99539.53;5053232;28;20396;-85
2022/09/09 03:10:40;;;;;;;4.03;1.27;;;;;;;17.38;70.00;99536.59;5053854;28;20045;-85
2022/09/09 03:13:08;;;;;;;5.22;1.30;;;;;;;17.42;69.79;99550.72;5053588;28;20492;-85
2022/09/09 03:15:37;;;;;;;3.15;1.17;;;;;;;17.40;69.91;99553.91;5053259;28;20053;-85
2022/09/09 03:18:05;;;;;;;5.78;1.50;;;;;;;17.28;70.30;99556.19;5053319;28;20049;-85
2022/09/09 03:20:32;;;;;;;4.78;1.65;;;;;;;17.36;70.24;99544.63;5053180;28;20404;-85
2022/09/09 03:23:01;;;;;;;4.38;1.42;;;;;;;17.30;70.59;99546.16;5041555;28;20504;-85
2022/09/09 03:25:28;;;;;;;3.15;1.48;;;;;;;17.38;70.24;99547.06;5033899;28;20429;-85
2022/09/09 03:27:56;;;;;;;3.45;1.30;;;;;;;17.32;70.56;99543.78;5033388;28;20057;-85
2022/09/09 03:30:24;;;;;;;4.43;1.45;;;;;;;17.33;70.53;99531.34;5033603;28;20053;-85
2022/09/09 03:32:54;;;;;;;3.72;1.35;;;;;;;17.35;70.61;99528.94;5033717;28;20072;-85
2022/09/09 03:35:22;;;;;;;5.32;1.20;;;;;;;17.28;70.66;99528.03;5033206;28;20768;-84
2022/09/09 03:37:49;;;;;;;4.55;1.50;;;;;;;17.29;70.62;99527.66;5046330;28;20083;-85
2022/09/09 03:40:19;;;;;;;3.08;1.20;;;;;;;17.35;70.29;99531.75;5055874;28;20056;-85
2022/09/09 03:42:47;;;;;;;3.35;1.45;;;;;;;17.28;70.57;99531.66;5057492;28;20079;-85
2022/09/09 03:45:16;;;;;;;2.10;0.93;;;;;;;17.34;70.39;99537.75;5057456;28;20501;-85
2022/09/09 03:47:44;;;;;;;5.43;1.35;;;;;;;17.36;70.20;99535.38;5057648;28;20064;-84
2022/09/09 03:50:14;;;;;;;2.85;1.30;;;;;;;17.24;71.02;99534.44;5057320;28;20044;-85
2022/09/09 03:52:42;;;;;;;4.72;1.30;;;;;;;17.11;71.45;99532.25;5057042;28;20045;-85
2022/09/09 03:55:10;;;;;;;3.38;1.48;;;;;;;17.28;70.83;99528.03;5056856;28;20056;-84
2022/09/09 03:57:37;;;;;;;6.47;1.92;;;;;;;17.10;71.67;99525.00;5056995;28;20060;-84
2022/09/09 04:00:06;;;;;;;2.47;1.40;;;;;;;17.08;71.98;99533.03;5056994;28;20060;-84
2022/09/09 04:02:34;;;;;;;3.60;1.48;;;;;;;17.04;72.13;99538.59;5056671;28;20060;-85
2022/09/09 04:05:01;;;;;;;3.92;1.33;;;;;;;17.07;72.14;99528.56;5055429;28;20045;-85
2022/09/09 04:07:30;;;;;;;5.05;1.50;;;;;;;17.15;71.93;99533.09;5058285;28;20405;-84
2022/09/09 04:09:58;;;;;;;4.82;1.33;;;;;;;17.10;72.00;99539.06;5056929;28;20048;-85
2022/09/09 04:12:25;;;;;;;4.53;1.60;;;;;;;17.06;72.31;99536.19;5056546;28;20053;-85
2022/09/09 04:14:52;;;;;;;3.92;1.55;;;;;;;17.14;72.00;99534.31;5056604;28;20064;-85
2022/09/09 04:17:20;;;;;;;4.95;1.48;;;;;;;17.04;72.46;99532.97;5056681;28;20053;-85
2022/09/09 04:19:47;;;;;;;4.30;1.42;;;;;;;17.11;72.35;99533.03;5056172;28;20655;-85
2022/09/09 04:22:14;;;;;;;4.65;1.30;;;;;;;17.13;72.10;99538.31;5056110;28;20489;-85
2022/09/09 04:24:43;;;;;;;3.65;1.45;;;;;;;17.10;72.29;99527.81;5057105;28;20385;-85
2022/09/09 04:27:10;;;;;;;3.92;1.63;;;;;;;17.14;72.13;99534.31;5056530;28;20068;-85
2022/09/09 04:29:38;;;;;;;3.47;1.30;;;;;;;17.14;72.42;99539.94;5057326;28;20049;-85
2022/09/09 04:32:05;;;;;;;3.60;1.50;;;;;;;17.20;71.93;99533.59;5056649;28;20474;-85
2022/09/09 04:34:32;;;;;;;3.03;1.27;;;;;;;17.11;72.49;99533.03;5056762;28;20052;-85
2022/09/09 04:37:00;;;;;;;3.72;1.50;;;;;;;17.11;72.53;99526.63;5056087;28;20053;-85
2022/09/09 04:39:27;;;;;;;5.38;1.35;;;;;;;17.14;72.48;99528.69;5056730;28;20068;-85
2022/09/09 04:41:56;;;;;;;3.58;1.45;;;;;;;17.06;72.81;99532.59;5055894;28;20044;-85
2022/09/09 04:44:24;;;;;;;3.33;1.50;;;;;;;16.94;73.14;99542.88;5056366;28;20053;-85
2022/09/09 04:46:52;;;;;;;5.25;1.45;;;;;;;17.07;72.88;99535.00;5056349;28;20413;-85
2022/09/09 04:49:19;;;;;;;3.85;1.60;;;;;;;16.79;74.08;99541.03;5056147;28;20418;-86
2022/09/09 04:51:46;;;;;;;2.55;1.10;;;;;;;16.92;73.70;99536.00;5054382;28;20120;-85
2022/09/09 04:54:14;;;;;;;5.38;1.60;;;;;;;16.95;73.39;99533.25;5055763;28;20386;-85
2022/09/09 04:56:42;;;;;;;4.53;1.50;;;;;;;16.92;73.61;99538.81;5056193;28;20064;-85
2022/09/09 04:59:11;;;;;;;4.82;1.65;;;;;;;17.12;72.58;99545.13;5055777;28;20049;-85
2022/09/09 05:01:38;;;;;;;4.78;1.20;;;;;;;17.04;72.87;99535.78;5055980;28;20060;-86
2022/09/09 05:04:05;;;;;;;4.30;1.30;;;;;;;17.11;72.75;99535.06;5054039;28;20064;-85
2022/09/09 05:06:32;;;;;;;3.72;1.40;;;;;;;17.08;73.04;99538.66;5056235;28;20060;-85
2022/09/09 05:09:00;;;;;;;4.18;1.60;;;;;;;17.20;72.57;99544.03;5056265;28;20057;-85
2022/09/09 05:11:29;;;;;;;4.15;1.42;;;;;;;17.06;72.77;99532.59;5055796;28;20386;-85
2022/09/09 05:13:57;;;;;;;4.75;1.52;;;;;;;17.23;72.02;99538.44;5056267;28;20049;-86
2022/09/09 05:16:26;;;;;;;5.10;1.40;;;;;;;17.38;71.58;99553.50;5055373;28;20049;-85
2022/09/09 05:18:53;;;;;;;3.05;1.25;;;;;;;17.52;71.05;99546.44;5056799;28;20404;-85
2022/09/09 05:21:23;;;;;;;4.82;1.17;;;;;;;17.57;70.63;99534.81;5056152;28;20422;-86
2022/09/09 05:23:51;;;;;;;;;;;;;;;17.52;70.72;99538.00;5056382;28;20076;-85
2022/09/09 05:26:20;;;;;;;5.18;1.63;;;;;;;17.54;70.86;99544.84;5055085;28;20372;-85
2022/09/09 05:28:50;;;;;;;3.50;1.25;;;;;;;17.58;70.44;99542.88;5055388;28;20053;-85
2022/09/09 05:31:19;;;;;;;3.20;1.40;;;;;;;17.65;70.13;99540.13;5053509;28;20056;-85
2022/09/09 05:33:49;;;;;;;4.73;1.37;;;;;;;17.60;70.29;99540.50;5054799;28;20048;-85
2022/09/09 05:36:18;;;;;;;4.90;1.25;;;;;;;17.59;70.33;99538.06;5052687;28;20056;-84
2022/09/09 05:38:46;;;;;;;4.85;1.50;;;;;;;17.60;70.10;99550.97;5054740;28;20045;-85
2022/09/09 05:41:15;;;;;;;4.10;1.30;;;;;;;17.62;70.39;99545.75;5053226;28;20061;-86
2022/09/09 05:43:44;;;;;;;4.22;1.55;;;;;;;17.65;70.09;99548.59;5051494;28;20135;-85
2022/09/09 05:46:13;;;;;;;3.42;1.20;;;;;;;17.75;69.88;99551.94;5048253;28;20354;-85
2022/09/09 05:48:42;;;;;;;5.25;1.25;;;;;;;17.56;70.30;99545.28;5054222;28;20053;-85
2022/09/09 05:51:12;;;;;;;4.55;1.40;;;;;;;17.80;69.38;99548.75;5052566;28;20048;-85
2022/09/09 05:53:40;;;;;;;6.22;1.83;;;;;;;17.76;69.62;99545.88;5054794;28;20056;-85
2022/09/09 05:56:10;;;;;;;3.95;1.50;;;;;;;17.75;69.71;99547.09;5055515;28;20512;-85
2022/09/09 05:58:38;;;;;;;5.07;1.50;;;;;;;17.87;69.32;99543.25;5056355;28;20052;-85
2022/09/09 06:01:07;;;;;;;4.75;1.48;;;;;;;17.85;69.28;99546.44;5055767;28;20060;-85
2022/09/09 06:03:36;;;;;;;4.93;1.67;;;;;;;17.88;69.29;99544.03;5053462;28;20049;-85
2022/09/09 06:06:06;;;;;;;4.40;1.45;;;;;;;17.98;69.06;99551.78;5053068;28;20501;-86
2022/09/09 06:08:36;;;;;;;4.03;1.40;;;;;;;17.92;69.05;99556.16;5054022;28;20056;-85
2022/09/09 06:11:05;;;;;;;4.68;1.75;;;;;;;17.95;68.87;99558.19;5054826;28;20057;-86
2022/09/09 06:13:33;;;;;;;3.17;1.83;;;;;;;17.95;69.10;99556.16;5054082;28;20052;-85
2022/09/09 06:16:00;;;;;;;5.63;1.45;;;;;;;17.98;69.01;99554.63;5054148;28;20076;-85
2022/09/09 06:18:28;;;;;;;4.28;1.77;;;;;;;18.06;68.74;99550.66;5053373;28;20060;-84
2022/09/09 06:20:57;;;;;;;4.45;1.15;;;;;;;17.99;68.96;99553.41;5052983;28;20049;-86
2022/09/09 06:23:25;;;;;;;4.93;1.52;;;;;;;18.07;69.09;99554.28;5053519;28;20057;-85
2022/09/09 06:26:02;;;;;;;4.90;1.63;;;;;;;17.93;69.17;99557.75;5054202;28;20053;-86
2022/09/09 06:28:29;;;;;;;4.05;1.70;;;;;;;17.95;68.92;99553.34;5054619;28;20508;-85
2022/09/09 06:30:59;;;;;;;3.28;1.30;;;;;;;17.89;69.21;99552.13;5054257;28;20405;-84
2022/09/09 06:33:34;;;;;;;2.92;1.30;;;;;;;17.89;69.36;99562.56;5053027;28;20045;-87
2022/09/09 06:36:03;;;;;;;4.28;1.30;;;;;;;17.84;69.40;99564.53;5034603;28;20057;-86
2022/09/09 06:38:33;;;;;;;3.10;1.38;;;;;;;17.82;69.45;99550.00;5040179;28;20512;-86
2022/09/09 06:41:06;;;;;;;5.82;1.50;;;;;;;17.87;69.48;99559.31;5048737;28;20144;-85
2022/09/09 06:43:34;;;;;;;4.55;1.48;;;;;;;17.73;69.84;99560.75;5048599;28;20052;-85
2022/09/09 06:46:04;;;;;;;6.90;1.50;;;;;;;17.70;69.90;99563.53;5051894;28;20063;-87
2022/09/09 06:48:31;;;;;;;4.20;1.45;;;;;;;17.76;69.83;99554.34;5053170;28;20516;-86
2022/09/09 06:51:02;;;;;;;3.67;1.30;;;;;;;18.07;68.76;99557.91;5054573;28;20061;-84
2022/09/09 06:53:30;;;;;;;3.10;1.08;;;;;;;18.15;68.47;99561.63;5054915;28;20053;-84
2022/09/09 06:55:58;;;;;;;4.10;1.40;;;;;;;18.21;67.94;99562.88;5053209;28;20405;-86
2022/09/09 06:58:27;;;;;;;5.45;1.40;;;;;;;18.09;68.26;99563.16;5048412;28;20048;-84
2022/09/09 07:00:55;;;;;;;6.20;1.47;;;;;;;18.09;68.41;99558.34;5050729;28;20408;-87
2022/09/09 07:03:22;;;;;;;3.05;1.33;;;;;;;17.96;68.84;99565.47;5052445;28;20499;-86
2022/09/09 07:05:56;;;;;;;3.10;1.23;;;;;;;17.87;69.51;99571.41;5048349;28;20049;-86
2022/09/09 07:08:24;;;;;;;4.43;1.20;;;;;;;17.69;70.29;99582.44;5039908;28;20543;-85
2022/09/09 07:10:53;;;;;;;4.20;1.73;;;;;;;17.58;70.21;99571.03;5048469;28;20255;-86
2022/09/09 07:13:25;;;;;;;3.83;1.05;;;;;;;17.58;70.44;99575.88;5045363;28;20428;-87
2022/09/09 07:15:56;;;;;;;3.25;1.20;;;;;;;17.55;70.72;99573.81;5055049;28;20061;-89
2022/09/09 07:18:30;;;;;;;4.25;1.33;;;;;;;17.65;70.48;99579.56;5052665;28;20500;-87
2022/09/09 07:20:57;;;;;;;3.28;1.10;;;;;;;17.85;70.11;99573.81;5049703;28;20053;-87
2022/09/09 07:23:25;;;;;;;3.00;1.10;;;;;;;18.05;69.65;99577.22;5051803;28;20053;-88
2022/09/09 07:25:53;;;;;;;3.00;1.13;;;;;;;18.11;69.32;99567.22;5055127;28;20053;-88
2022/09/09 07:28:21;;;;;;;3.42;1.10;;;;;;;18.36;67.94;99573.09;5051530;28;20060;-87
2022/09/09 07:30:56;;;;;;;4.10;0.90;;;;;;;18.74;67.39;99582.25;5048265;28;20482;-87
2022/09/09 07:33:23;;;;;;;3.75;1.10;;;;;;;19.01;66.14;99571.56;5052230;28;20409;-87
2022/09/09 07:35:52;;;;;;;3.75;1.30;;;;;;;18.92;65.75;99584.41;5053507;28;20053;-87
2022/09/09 07:38:20;;;;;;;2.92;1.10;;;;;;;19.13;65.14;99578.91;5052528;28;20052;-86
2022/09/09 07:40:50;;;;;;;3.30;1.20;;;;;;;19.11;65.05;99574.84;5051880;28;20040;-86
2022/09/09 07:43:18;;;;;;;2.30;0.95;;;;;;;19.30;64.68;99577.41;5053214;28;20049;-87
2022/09/09 07:45:46;;;;;;;2.90;1.35;;;;;;;19.67;63.55;99579.16;5049608;28;20060;-87
2022/09/09 07:48:15;;;;;;;4.07;1.10;;;;;;;19.95;62.75;99583.28;5055143;28;20413;-87
2022/09/09 07:50:42;;;;;;;5.30;1.05;;;;;;;20.47;60.93;99580.94;5056602;28;20052;-87
2022/09/09 07:53:10;;;;;;;3.88;1.40;;;;;;;20.99;59.17;99580.53;5052433;28;20045;-88
2022/09/09 07:55:37;;;;;;;3.10;1.15;;;;;;;21.52;58.05;99584.47;5057142;28;20048;-90
2022/09/09 07:58:04;;;;;;;2.40;1.17;;;;;;;22.40;55.31;99582.34;5054289;28;20064;-88
2022/09/09 08:00:33;;;;;;;6.85;1.50;;;;;;;23.05;52.58;99596.81;5056011;28;20049;-86
2022/09/09 08:03:00;;;;;;;2.92;1.10;;;;;;;23.50;51.47;99585.38;5056192;28;20056;-85
2022/09/09 08:05:29;;;;;;;3.92;1.42;;;;;;;23.77;50.57;99576.13;5048652;28;20052;-86
2022/09/09 08:07:56;;;;;;;4.43;1.30;;;;;;;23.31;51.11;99586.00;5055830;28;20049;-86
2022/09/09 08:10:24;;;;;;;4.22;1.20;;;;;;;23.59;50.52;99586.91;5056977;28;20056;-85
2022/09/09 08:12:52;;;;;;;4.15;1.35;;;;;;;23.17;50.63;99581.28;5054501;28;20049;-86
2022/09/09 08:15:19;;;;;;;7.07;1.77;;;;;;;22.38;53.07;99581.16;5056711;28;20053;-87
2022/09/09 08:17:47;;;;;;;4.10;1.23;;;;;;;22.28;52.91;99600.69;5055961;28;20049;-89
2022/09/09 08:20:14;;;;;;;4.10;1.40;;;;;;;22.33;53.32;99590.94;5056076;28;20057;-88
2022/09/09 08:22:43;;;;;;;3.15;1.30;;;;;;;23.05;51.67;99587.50;5057386;28;20406;-87
2022/09/09 08:25:11;;;;;;;3.10;1.40;;;;;;;23.89;49.27;99581.22;5056306;28;20067;-88
2022/09/09 08:27:38;;;;;;;3.65;1.45;;;;;;;25.13;46.62;99575.97;5055405;28;20049;-89
2022/09/09 08:30:07;;;;;;;2.92;1.30;;;;;;;25.79;44.36;99582.03;5056546;28;20053;-89
2022/09/09 08:32:37;;;;;;;5.10;1.50;;;;;;;26.65;42.63;99578.03;5053946;28;20053;-89
2022/09/09 08:35:04;;;;;;;2.28;1.23;;;;;;;27.90;39.84;99582.38;5054092;28;20049;-87
2022/09/09 08:37:32;;;;;;;2.88;1.40;;;;;;;29.19;37.08;99576.53;5058383;28;20488;-88
2022/09/09 08:40:02;;;;;;;2.40;1.20;;;;;;;30.67;34.57;99566.75;5055898;28;20048;-87
2022/09/09 08:42:39;;;;;;;3.45;1.50;;;;;;;30.67;34.60;99576.16;5054930;28;20048;-87
2022/09/09 08:45:29;;;;;;;3.50;1.40;;;;;;;30.19;34.34;99575.63;5057090;28;20503;-86
2022/09/09 08:48:10;;;;;;;3.22;1.23;;;;;;;31.50;32.36;99581.25;5054545;28;20420;-86
2022/09/09 08:50:40;;;;;;;4.30;1.40;;;;;;;30.57;33.34;99594.66;5057626;28;20408;-88
2022/09/09 08:53:17;;;;;;;3.80;1.30;;;;;;;31.30;31.99;99573.88;5055214;28;20050;-88
2022/09/09 08:55:49;;;;;;;5.88;1.50;;;;;;;30.79;33.24;99573.66;5042823;28;20053;-89
2022/09/09 08:58:19;;;;;;;3.15;1.20;;;;;;;30.95;32.97;99582.00;5042873;28;20053;-87
2022/09/09 09:01:03;;;;;;;3.45;1.25;;;;;;;31.67;31.15;99573.88;5054339;28;20063;-88
2022/09/09 09:03:41;;;;;;;3.88;1.75;;;;;;;30.53;32.07;99596.88;5056309;28;20053;-86
2022/09/09 09:06:22;;;;;;;3.77;1.63;;;;;;;31.05;31.44;99580.72;5046928;28;20052;-83
2022/09/09 09:08:56;;;;;;;2.20;1.15;;;;;;;30.79;32.34;99590.91;5055752;28;20131;-87
2022/09/09 09:11:25;;;;;;;4.07;1.35;;;;;;;31.22;32.06;99572.59;5050785;28;20064;-85
2022/09/09 09:13:59;;;;;;;3.15;1.38;;;;;;;31.85;30.45;99598.94;5053452;28;20045;-84
2022/09/09 09:16:33;;;;;;;5.78;1.65;;;;;;;32.03;29.75;99586.63;5056032;28;20064;-87
2022/09/09 09:19:02;;;;;;;2.88;1.50;;;;;;;32.43;29.69;99587.59;5040889;28;20056;-88
2022/09/09 09:21:37;;;;;;;3.95;1.65;;;;;;;33.54;27.97;99587.69;5055281;28;20053;-87
2022/09/09 09:24:15;;;;;;;4.97;1.33;;;;;;;34.11;27.02;99578.75;5035919;28;20049;-86
2022/09/09 09:26:44;;;;;;;4.32;1.48;;;;;;;33.26;27.73;99578.44;5048452;28;20072;-88
2022/09/09 09:29:14;;;;;;;3.00;1.30;;;;;;;32.61;27.75;99578.84;5056494;28;20131;-87
2022/09/09 09:31:47;;;;;;;3.58;1.35;;;;;;;32.51;28.08;99572.31;5053501;28;20049;-87
2022/09/09 09:34:15;;;;;;;3.17;1.25;;;;;;;32.20;28.83;99583.38;5059397;28;20485;-85
2022/09/09 09:36:46;;;;;;;3.45;1.50;;;;;;;31.08;30.31;99574.03;5053811;28;20416;-86
2022/09/09 09:39:25;;;;;;;4.05;1.40;;;;;;;32.04;29.17;99578.75;5055660;28;20041;-90
2022/09/09 09:41:54;;;;;;;3.60;1.10;;;;;;;32.71;27.96;99573.84;5056564;28;20056;-89
2022/09/09 09:44:25;;;;;;;2.50;1.30;;;;;;;31.62;29.77;99568.75;5050826;28;20060;-90
2022/09/09 09:46:52;;;;;;;3.53;1.50;;;;;;;32.10;28.31;99573.94;5047909;28;20049;-85
2022/09/09 09:49:20;;;;;;;3.50;1.75;;;;;;;33.72;26.78;99572.28;5054551;28;20049;-84
2022/09/09 09:51:48;;;;;;;4.25;1.90;;;;;;;33.35;27.32;99569.72;5054046;28;20056;-84
2022/09/09 09:54:23;;;;;;;3.60;1.27;;;;;;;32.69;28.09;99573.53;5052399;28;20064;-83
2022/09/09 09:56:52;;;;;;;3.80;1.08;;;;;;;31.01;30.55;99573.53;5038299;28;20052;-83
2022/09/09 09:59:23;;;;;;;;;;;;;;;28.77;33.94;99579.63;5055798;28;20049;-86
2022/09/09 10:01:51;;;;;;;4.65;1.45;;;;;;;29.11;33.63;99581.75;5054917;28;19928;-85
2022/09/09 10:04:22;;;;;;;4.93;2.10;;;;;;;28.92;33.98;99586.50;5053874;28;20048;-86
2022/09/09 10:06:50;;;;;;;3.35;1.38;;;;;;;28.41;33.70;99589.38;5053750;28;20060;-87
2022/09/09 10:09:24;;;;;;;4.68;1.50;;;;;;;28.09;34.53;99591.22;5050975;28;20048;-87
2022/09/09 10:11:58;;;;;;;3.70;1.50;;;;;;;28.46;32.86;99598.22;5052522;28;20064;-88
2022/09/09 10:14:32;;;;;;;2.83;1.30;;;;;;;28.39;33.64;99589.84;5052951;28;20056;-89
2022/09/09 10:17:13;;;;;;;2.67;0.93;;;;;;;27.44;34.47;99581.66;5053966;28;20057;-89
2022/09/09 10:19:45;;;;;;;4.18;1.42;;;;;;;27.26;34.63;99596.47;5052908;28;20045;-88
2022/09/09 10:22:26;;;;;;;4.43;1.30;;;;;;;28.01;33.54;99581.22;5058886;28;20044;-87
2022/09/09 10:25:15;;;;;;;3.95;1.10;;;;;;;29.12;31.66;99580.47;5053767;28;20055;-86
2022/09/09 10:28:02;;;;;;;4.70;1.30;;;;;;;28.47;32.83;99581.81;5047839;28;20053;-86
2022/09/09 10:30:39;;;;;;;5.97;1.58;;;;;;;29.25;31.85;99587.00;5048872;28;20050;-86
2022/09/09 10:33:12;;;;;;;3.72;1.00;;;;;;;28.44;32.69;99582.75;5039657;28;20049;-87
2022/09/09 10:35:49;;;;;;;3.17;1.30;;;;;;;28.44;33.06;99577.81;5054261;28;20072;-88
2022/09/09 10:38:21;;;;;;;3.08;1.30;;;;;;;29.44;30.99;99573.59;5054278;28;20516;-88
2022/09/09 10:41:07;;;;;;;3.80;1.20;;;;;;;29.18;31.15;99563.50;5054654;28;20057;-85
2022/09/09 10:43:53;;;;;;;2.28;1.10;;;;;;;30.43;30.29;99557.88;5037420;28;20495;-88
2022/09/09 10:46:29;;;;;;;3.33;1.13;;;;;;;30.20;29.53;99570.69;5048991;28;20056;-87
2022/09/09 10:49:15;;;;;;;3.08;0.95;;;;;;;29.53;29.81;99573.66;5052394;28;20053;-88
2022/09/09 10:51:52;;;;;;;3.67;1.20;;;;;;;27.67;32.53;99560.53;5050985;28;20061;-87
2022/09/09 10:54:30;;;;;;;2.55;0.90;;;;;;;27.31;33.69;99580.81;5044026;28;20044;-87
2022/09/09 10:57:02;;;;;;;2.00;1.05;;;;;;;26.65;34.79;99563.75;5053372;28;20078;-88
2022/09/09 10:59:36;;;;;;;3.42;1.00;;;;;;;25.95;36.23;99567.03;5053847;28;20060;-87
2022/09/09 11:02:15;;;;;;;3.28;1.25;;;;;;;26.52;35.44;99580.78;5053966;28;20053;-87
2022/09/09 11:04:46;;;;;;;4.07;1.48;;;;;;;27.73;33.46;99572.22;5053676;28;20064;-87
2022/09/09 11:07:23;;;;;;;2.72;0.93;;;;;;;26.78;35.32;99572.41;5053751;28;20057;-87
2022/09/09 11:09:56;;;;;;;3.67;1.30;;;;;;;25.73;37.68;99585.41;5043879;28;20068;-88
2022/09/09 11:12:26;;;;;;;2.67;1.00;;;;;;;25.23;38.34;99585.63;5053470;28;20056;-87
2022/09/09 11:15:00;;;;;;;4.03;1.20;;;;;;;25.23;38.79;99577.06;5051678;28;20457;-87
2022/09/09 11:17:35;;;;;;;3.25;1.23;;;;;;;25.96;37.75;99577.22;5053965;28;20057;-87
2022/09/09 11:20:03;;;;;;;4.28;1.55;;;;;;;27.44;35.90;99590.22;5053366;28;20049;-87
2022/09/09 11:22:36;;;;;;;4.53;1.70;;;;;;;28.22;35.19;99597.72;5054131;28;20053;-87
2022/09/09 11:25:09;;;;;;;3.17;1.13;;;;;;;28.79;33.72;99586.53;5053666;28;20053;-87
2022/09/09 11:27:43;;;;;;;3.28;1.52;;;;;;;28.92;33.23;99578.69;5049634;28;20053;-88
2022/09/09 11:30:40;;;;;;;3.20;1.30;;;;;;;29.66;32.58;99581.38;5047580;28;20156;-84
2022/09/09 11:33:31;;;;;;;3.83;1.50;;;;;;;30.82;30.91;99566.94;5051241;28;20053;-83
2022/09/09 11:36:12;;;;;;;3.38;1.30;;;;;;;29.92;31.69;99570.56;5050069;28;20049;-86
2022/09/09 11:38:46;;;;;;;3.15;1.38;;;;;;;29.63;32.21;99570.81;5052875;28;20075;-84
2022/09/09 11:41:15;;;;;;;3.42;1.55;;;;;;;29.69;32.76;99552.56;5052539;28;20155;-86
2022/09/09 11:43:45;;;;;;;4.40;1.25;;;;;;;30.77;31.12;99558.94;5038479;28;20050;-86
2022/09/09 11:46:17;;;;;;;2.97;1.38;;;;;;;31.68;29.38;99568.91;5048991;28;20050;-82
2022/09/09 11:48:46;;;;;;;4.20;1.40;;;;;;;31.90;29.58;99551.44;5040644;28;20056;-84
2022/09/09 11:51:26;;;;;;;2.78;1.55;;;;;;;31.71;29.43;99563.00;5044816;28;20060;-85
2022/09/09 11:53:58;;;;;;;1.92;1.05;;;;;;;31.65;29.11;99564.13;5046986;28;20049;-83